sensor_id;sensor_type;location;lat;lon;timestamp;P1;durP1;ratioP1;P2;durP2;ratioP2
20988;SDS011;10653;47.052;15.410;2023-07-08T00:00:15;9.50;;;6.70;;
20988;SDS011;10653;47.052;15.410;2023-07-08T00:02:42;7.33;;;5.30;;
20988;SDS011;10653;47.052;15.410;2023-07-08T00:05:09;7.80;;;5.80;;
20988;SDS011;10653;47.052;15.410;2023-07-08T00:07:36;7.20;;;6.00;;
20988;SDS011;10653;47.052;15.410;2023-07-08T00:10:04;8.63;;;6.60;;
20988;SDS011;10653;47.052;15.410;2023-07-08T00:12:33;6.53;;;5.90;;
20988;SDS011;10653;47.052;15.410;2023-07-08T00:14:59;8.23;;;6.30;;
20988;SDS011;10653;47.052;15.410;2023-07-08T00:17:25;8.97;;;7.00;;
20988;SDS011;10653;47.052;15.410;2023-07-08T00:19:51;7.37;;;6.27;;
20988;SDS011;10653;47.052;15.410;2023-07-08T00:22:19;7.17;;;5.90;;
20988;SDS011;10653;47.052;15.410;2023-07-08T00:24:45;6.67;;;5.97;;
20988;SDS011;10653;47.052;15.410;2023-07-08T00:27:11;6.23;;;5.63;;
20988;SDS011;10653;47.052;15.410;2023-07-08T00:29:40;6.87;;;6.17;;
20988;SDS011;10653;47.052;15.410;2023-07-08T00:32:14;10.00;;;7.27;;
20988;SDS011;10653;47.052;15.410;2023-07-08T00:34:41;6.73;;;6.10;;
20988;SDS011;10653;47.052;15.410;2023-07-08T00:37:09;6.87;;;5.77;;
20988;SDS011;10653;47.052;15.410;2023-07-08T00:39:36;6.37;;;5.53;;
20988;SDS011;10653;47.052;15.410;2023-07-08T00:42:06;6.47;;;5.40;;
20988;SDS011;10653;47.052;15.410;2023-07-08T00:44:36;6.63;;;5.83;;
20988;SDS011;10653;47.052;15.410;2023-07-08T00:47:04;5.93;;;5.33;;
20988;SDS011;10653;47.052;15.410;2023-07-08T00:54:45;8.87;;;6.47;;
20988;SDS011;10653;47.052;15.410;2023-07-08T00:57:11;6.80;;;5.83;;
20988;SDS011;10653;47.052;15.410;2023-07-08T00:59:38;8.90;;;6.17;;
20988;SDS011;10653;47.052;15.410;2023-07-08T01:02:07;6.70;;;5.70;;
20988;SDS011;10653;47.052;15.410;2023-07-08T01:04:37;6.77;;;5.30;;
20988;SDS011;10653;47.052;15.410;2023-07-08T01:07:07;6.30;;;5.70;;
20988;SDS011;10653;47.052;15.410;2023-07-08T01:09:37;6.43;;;5.83;;
20988;SDS011;10653;47.052;15.410;2023-07-08T01:12:06;6.87;;;6.17;;
20988;SDS011;10653;47.052;15.410;2023-07-08T01:14:34;6.03;;;5.37;;
20988;SDS011;10653;47.052;15.410;2023-07-08T01:17:01;6.67;;;5.90;;
20988;SDS011;10653;47.052;15.410;2023-07-08T01:19:27;7.37;;;6.50;;
20988;SDS011;10653;47.052;15.410;2023-07-08T01:24:26;7.07;;;6.20;;
20988;SDS011;10653;47.052;15.410;2023-07-08T01:26:53;8.00;;;6.07;;
20988;SDS011;10653;47.052;15.410;2023-07-08T01:29:19;6.30;;;5.70;;
20988;SDS011;10653;47.052;15.410;2023-07-08T01:31:45;6.50;;;5.90;;
20988;SDS011;10653;47.052;15.410;2023-07-08T01:34:14;7.53;;;6.27;;
20988;SDS011;10653;47.052;15.410;2023-07-08T01:36:41;6.43;;;5.77;;
20988;SDS011;10653;47.052;15.410;2023-07-08T01:39:11;7.33;;;6.13;;
20988;SDS011;10653;47.052;15.410;2023-07-08T01:41:37;6.90;;;6.20;;
20988;SDS011;10653;47.052;15.410;2023-07-08T01:44:03;8.30;;;6.10;;
20988;SDS011;10653;47.052;15.410;2023-07-08T01:46:29;6.37;;;5.47;;
20988;SDS011;10653;47.052;15.410;2023-07-08T01:48:57;8.17;;;6.00;;
20988;SDS011;10653;47.052;15.410;2023-07-08T01:51:24;7.03;;;5.73;;
20988;SDS011;10653;47.052;15.410;2023-07-08T01:53:51;7.57;;;6.43;;
20988;SDS011;10653;47.052;15.410;2023-07-08T01:56:17;6.20;;;5.50;;
20988;SDS011;10653;47.052;15.410;2023-07-08T01:58:43;7.23;;;6.30;;
20988;SDS011;10653;47.052;15.410;2023-07-08T02:01:09;7.53;;;6.77;;
20988;SDS011;10653;47.052;15.410;2023-07-08T02:03:36;7.80;;;5.90;;
20988;SDS011;10653;47.052;15.410;2023-07-08T02:06:02;6.53;;;5.70;;
20988;SDS011;10653;47.052;15.410;2023-07-08T02:08:28;6.27;;;5.67;;
20988;SDS011;10653;47.052;15.410;2023-07-08T02:10:56;7.57;;;6.13;;
20988;SDS011;10653;47.052;15.410;2023-07-08T02:13:22;7.00;;;6.30;;
20988;SDS011;10653;47.052;15.410;2023-07-08T02:15:48;9.83;;;5.97;;
20988;SDS011;10653;47.052;15.410;2023-07-08T02:18:14;7.70;;;6.40;;
20988;SDS011;10653;47.052;15.410;2023-07-08T02:20:41;6.33;;;5.67;;
20988;SDS011;10653;47.052;15.410;2023-07-08T02:23:07;7.27;;;5.60;;
20988;SDS011;10653;47.052;15.410;2023-07-08T02:25:33;7.53;;;6.73;;
20988;SDS011;10653;47.052;15.410;2023-07-08T02:27:59;6.60;;;5.60;;
20988;SDS011;10653;47.052;15.410;2023-07-08T02:30:26;10.07;;;6.27;;
20988;SDS011;10653;47.052;15.410;2023-07-08T02:32:52;6.30;;;5.63;;
20988;SDS011;10653;47.052;15.410;2023-07-08T02:35:23;8.00;;;5.93;;
20988;SDS011;10653;47.052;15.410;2023-07-08T02:37:50;5.83;;;5.30;;
20988;SDS011;10653;47.052;15.410;2023-07-08T02:40:17;7.10;;;6.17;;
20988;SDS011;10653;47.052;15.410;2023-07-08T02:42:42;6.33;;;5.63;;
20988;SDS011;10653;47.052;15.410;2023-07-08T02:45:08;7.23;;;6.53;;
20988;SDS011;10653;47.052;15.410;2023-07-08T02:47:34;6.93;;;6.00;;
20988;SDS011;10653;47.052;15.410;2023-07-08T02:50:01;7.00;;;6.30;;
20988;SDS011;10653;47.052;15.410;2023-07-08T02:52:27;6.47;;;5.87;;
20988;SDS011;10653;47.052;15.410;2023-07-08T02:54:53;6.47;;;5.70;;
20988;SDS011;10653;47.052;15.410;2023-07-08T02:57:19;6.47;;;5.83;;
20988;SDS011;10653;47.052;15.410;2023-07-08T02:59:45;7.30;;;6.20;;
20988;SDS011;10653;47.052;15.410;2023-07-08T03:02:11;6.57;;;5.97;;
20988;SDS011;10653;47.052;15.410;2023-07-08T03:04:37;7.40;;;6.10;;
20988;SDS011;10653;47.052;15.410;2023-07-08T03:07:04;7.07;;;6.10;;
20988;SDS011;10653;47.052;15.410;2023-07-08T03:09:30;8.30;;;6.33;;
20988;SDS011;10653;47.052;15.410;2023-07-08T03:11:57;6.57;;;6.00;;
20988;SDS011;10653;47.052;15.410;2023-07-08T03:14:24;6.30;;;5.70;;
20988;SDS011;10653;47.052;15.410;2023-07-08T03:16:50;6.73;;;6.13;;
20988;SDS011;10653;47.052;15.410;2023-07-08T03:19:16;7.50;;;6.03;;
20988;SDS011;10653;47.052;15.410;2023-07-08T03:21:42;6.23;;;5.60;;
20988;SDS011;10653;47.052;15.410;2023-07-08T03:24:09;8.10;;;6.60;;
20988;SDS011;10653;47.052;15.410;2023-07-08T03:26:37;8.20;;;6.53;;
20988;SDS011;10653;47.052;15.410;2023-07-08T03:29:04;6.73;;;5.77;;
20988;SDS011;10653;47.052;15.410;2023-07-08T03:31:30;6.00;;;5.43;;
20988;SDS011;10653;47.052;15.410;2023-07-08T03:33:56;7.10;;;5.97;;
20988;SDS011;10653;47.052;15.410;2023-07-08T03:36:22;7.40;;;5.80;;
20988;SDS011;10653;47.052;15.410;2023-07-08T03:38:52;6.37;;;5.67;;
20988;SDS011;10653;47.052;15.410;2023-07-08T03:41:18;8.10;;;6.50;;
20988;SDS011;10653;47.052;15.410;2023-07-08T03:43:44;8.60;;;6.67;;
20988;SDS011;10653;47.052;15.410;2023-07-08T03:46:10;6.83;;;5.50;;
20988;SDS011;10653;47.052;15.410;2023-07-08T03:48:37;8.50;;;6.67;;
20988;SDS011;10653;47.052;15.410;2023-07-08T03:51:03;6.70;;;5.57;;
20988;SDS011;10653;47.052;15.410;2023-07-08T03:53:29;7.30;;;6.23;;
20988;SDS011;10653;47.052;15.410;2023-07-08T03:55:55;8.17;;;6.90;;
20988;SDS011;10653;47.052;15.410;2023-07-08T03:58:21;8.67;;;6.67;;
20988;SDS011;10653;47.052;15.410;2023-07-08T04:00:47;7.03;;;6.33;;
20988;SDS011;10653;47.052;15.410;2023-07-08T04:03:13;8.13;;;7.33;;
20988;SDS011;10653;47.052;15.410;2023-07-08T04:05:39;6.90;;;5.80;;
20988;SDS011;10653;47.052;15.410;2023-07-08T04:08:05;7.23;;;6.53;;
20988;SDS011;10653;47.052;15.410;2023-07-08T04:10:31;9.03;;;7.20;;
20988;SDS011;10653;47.052;15.410;2023-07-08T04:12:57;7.80;;;7.10;;
20988;SDS011;10653;47.052;15.410;2023-07-08T04:15:23;8.27;;;7.23;;
20988;SDS011;10653;47.052;15.410;2023-07-08T04:17:52;9.27;;;7.43;;
20988;SDS011;10653;47.052;15.410;2023-07-08T04:20:20;7.83;;;6.73;;
20988;SDS011;10653;47.052;15.410;2023-07-08T04:22:46;8.03;;;7.23;;
20988;SDS011;10653;47.052;15.410;2023-07-08T04:25:12;7.30;;;6.60;;
20988;SDS011;10653;47.052;15.410;2023-07-08T04:27:39;8.50;;;7.57;;
20988;SDS011;10653;47.052;15.410;2023-07-08T04:30:06;8.53;;;7.30;;
20988;SDS011;10653;47.052;15.410;2023-07-08T04:32:32;7.73;;;7.03;;
20988;SDS011;10653;47.052;15.410;2023-07-08T04:34:58;9.83;;;7.40;;
20988;SDS011;10653;47.052;15.410;2023-07-08T04:37:24;8.53;;;7.03;;
20988;SDS011;10653;47.052;15.410;2023-07-08T04:39:50;8.73;;;7.83;;
20988;SDS011;10653;47.052;15.410;2023-07-08T04:42:16;8.53;;;7.73;;
20988;SDS011;10653;47.052;15.410;2023-07-08T04:44:43;9.03;;;7.73;;
20988;SDS011;10653;47.052;15.410;2023-07-08T04:47:09;7.70;;;6.57;;
20988;SDS011;10653;47.052;15.410;2023-07-08T04:49:37;12.73;;;8.80;;
20988;SDS011;10653;47.052;15.410;2023-07-08T04:52:05;9.83;;;7.80;;
20988;SDS011;10653;47.052;15.410;2023-07-08T04:54:31;9.87;;;8.53;;
20988;SDS011;10653;47.052;15.410;2023-07-08T04:56:57;8.27;;;7.47;;
20988;SDS011;10653;47.052;15.410;2023-07-08T04:59:24;8.73;;;7.77;;
20988;SDS011;10653;47.052;15.410;2023-07-08T05:01:51;8.70;;;7.50;;
20988;SDS011;10653;47.052;15.410;2023-07-08T05:04:18;8.50;;;7.67;;
20988;SDS011;10653;47.052;15.410;2023-07-08T05:06:44;11.60;;;8.60;;
20988;SDS011;10653;47.052;15.410;2023-07-08T05:09:10;8.90;;;7.90;;
20988;SDS011;10653;47.052;15.410;2023-07-08T05:11:36;11.17;;;8.60;;
20988;SDS011;10653;47.052;15.410;2023-07-08T05:14:03;8.60;;;7.80;;
20988;SDS011;10653;47.052;15.410;2023-07-08T05:16:29;8.67;;;6.90;;
20988;SDS011;10653;47.052;15.410;2023-07-08T05:18:55;9.37;;;8.27;;
20988;SDS011;10653;47.052;15.410;2023-07-08T05:21:21;12.77;;;8.60;;
20988;SDS011;10653;47.052;15.410;2023-07-08T05:23:47;11.63;;;7.80;;
20988;SDS011;10653;47.052;15.410;2023-07-08T05:26:17;10.13;;;7.67;;
20988;SDS011;10653;47.052;15.410;2023-07-08T05:28:43;8.20;;;7.00;;
20988;SDS011;10653;47.052;15.410;2023-07-08T05:31:09;9.77;;;7.03;;
20988;SDS011;10653;47.052;15.410;2023-07-08T05:33:35;11.57;;;7.37;;
20988;SDS011;10653;47.052;15.410;2023-07-08T05:36:01;8.87;;;8.00;;
20988;SDS011;10653;47.052;15.410;2023-07-08T05:38:27;8.47;;;6.60;;
20988;SDS011;10653;47.052;15.410;2023-07-08T05:40:57;10.77;;;8.17;;
20988;SDS011;10653;47.052;15.410;2023-07-08T05:43:23;8.07;;;7.27;;
20988;SDS011;10653;47.052;15.410;2023-07-08T05:45:49;8.10;;;6.97;;
20988;SDS011;10653;47.052;15.410;2023-07-08T05:48:15;9.67;;;7.20;;
20988;SDS011;10653;47.052;15.410;2023-07-08T05:50:42;10.17;;;9.10;;
20988;SDS011;10653;47.052;15.410;2023-07-08T05:53:09;10.27;;;7.60;;
20988;SDS011;10653;47.052;15.410;2023-07-08T05:55:35;9.20;;;7.50;;
20988;SDS011;10653;47.052;15.410;2023-07-08T05:58:01;9.93;;;7.30;;
20988;SDS011;10653;47.052;15.410;2023-07-08T06:00:27;7.87;;;6.60;;
20988;SDS011;10653;47.052;15.410;2023-07-08T06:02:53;6.77;;;5.97;;
20988;SDS011;10653;47.052;15.410;2023-07-08T06:05:19;7.20;;;6.50;;
20988;SDS011;10653;47.052;15.410;2023-07-08T06:07:45;8.10;;;6.10;;
20988;SDS011;10653;47.052;15.410;2023-07-08T06:10:11;9.13;;;6.90;;
20988;SDS011;10653;47.052;15.410;2023-07-08T06:12:37;8.50;;;6.10;;
20988;SDS011;10653;47.052;15.410;2023-07-08T06:15:03;7.20;;;6.23;;
20988;SDS011;10653;47.052;15.410;2023-07-08T06:17:30;7.83;;;6.57;;
20988;SDS011;10653;47.052;15.410;2023-07-08T06:19:55;10.50;;;7.27;;
20988;SDS011;10653;47.052;15.410;2023-07-08T06:22:22;9.23;;;6.20;;
20988;SDS011;10653;47.052;15.410;2023-07-08T06:24:47;8.20;;;7.27;;
20988;SDS011;10653;47.052;15.410;2023-07-08T06:27:14;12.07;;;7.10;;
20988;SDS011;10653;47.052;15.410;2023-07-08T06:29:39;8.80;;;7.47;;
20988;SDS011;10653;47.052;15.410;2023-07-08T06:32:06;6.63;;;5.97;;
20988;SDS011;10653;47.052;15.410;2023-07-08T06:34:32;13.30;;;7.43;;
20988;SDS011;10653;47.052;15.410;2023-07-08T06:36:58;8.47;;;6.60;;
20988;SDS011;10653;47.052;15.410;2023-07-08T06:39:24;10.60;;;7.13;;
20988;SDS011;10653;47.052;15.410;2023-07-08T06:41:50;6.90;;;6.20;;
20988;SDS011;10653;47.052;15.410;2023-07-08T06:44:16;8.57;;;6.17;;
20988;SDS011;10653;47.052;15.410;2023-07-08T06:46:42;7.63;;;6.83;;
20988;SDS011;10653;47.052;15.410;2023-07-08T06:49:08;8.57;;;6.10;;
20988;SDS011;10653;47.052;15.410;2023-07-08T06:51:35;11.23;;;7.50;;
20988;SDS011;10653;47.052;15.410;2023-07-08T06:54:01;7.53;;;6.83;;
20988;SDS011;10653;47.052;15.410;2023-07-08T06:56:36;9.37;;;7.00;;
20988;SDS011;10653;47.052;15.410;2023-07-08T06:59:02;7.37;;;6.57;;
20988;SDS011;10653;47.052;15.410;2023-07-08T07:01:28;6.50;;;5.73;;
20988;SDS011;10653;47.052;15.410;2023-07-08T07:03:54;8.60;;;6.70;;
20988;SDS011;10653;47.052;15.410;2023-07-08T07:06:20;9.67;;;6.67;;
20988;SDS011;10653;47.052;15.410;2023-07-08T07:08:46;6.83;;;6.13;;
20988;SDS011;10653;47.052;15.410;2023-07-08T07:11:12;7.00;;;6.30;;
20988;SDS011;10653;47.052;15.410;2023-07-08T07:13:38;12.03;;;6.87;;
20988;SDS011;10653;47.052;15.410;2023-07-08T07:16:04;9.80;;;6.83;;
20988;SDS011;10653;47.052;15.410;2023-07-08T07:18:30;10.00;;;7.40;;
20988;SDS011;10653;47.052;15.410;2023-07-08T07:20:57;7.90;;;6.07;;
20988;SDS011;10653;47.052;15.410;2023-07-08T07:23:23;8.30;;;6.70;;
20988;SDS011;10653;47.052;15.410;2023-07-08T07:25:49;10.03;;;6.73;;
20988;SDS011;10653;47.052;15.410;2023-07-08T07:28:16;8.13;;;6.73;;
20988;SDS011;10653;47.052;15.410;2023-07-08T07:30:43;8.40;;;5.90;;
20988;SDS011;10653;47.052;15.410;2023-07-08T07:33:09;6.73;;;6.13;;
20988;SDS011;10653;47.052;15.410;2023-07-08T07:35:35;8.13;;;6.87;;
20988;SDS011;10653;47.052;15.410;2023-07-08T07:38:01;7.33;;;5.50;;
20988;SDS011;10653;47.052;15.410;2023-07-08T07:40:27;6.77;;;6.03;;
20988;SDS011;10653;47.052;15.410;2023-07-08T07:42:53;5.97;;;5.00;;
20988;SDS011;10653;47.052;15.410;2023-07-08T07:45:19;7.33;;;5.70;;
20988;SDS011;10653;47.052;15.410;2023-07-08T07:47:47;13.83;;;6.57;;
20988;SDS011;10653;47.052;15.410;2023-07-08T07:50:13;8.83;;;6.27;;
20988;SDS011;10653;47.052;15.410;2023-07-08T07:52:39;7.97;;;6.00;;
20988;SDS011;10653;47.052;15.410;2023-07-08T07:55:06;7.90;;;5.77;;
20988;SDS011;10653;47.052;15.410;2023-07-08T07:57:33;7.30;;;6.00;;
20988;SDS011;10653;47.052;15.410;2023-07-08T07:59:58;7.37;;;5.83;;
20988;SDS011;10653;47.052;15.410;2023-07-08T08:02:25;7.80;;;5.60;;
20988;SDS011;10653;47.052;15.410;2023-07-08T08:04:51;6.73;;;5.97;;
20988;SDS011;10653;47.052;15.410;2023-07-08T08:07:17;6.13;;;5.20;;
20988;SDS011;10653;47.052;15.410;2023-07-08T08:09:43;6.03;;;5.00;;
20988;SDS011;10653;47.052;15.410;2023-07-08T08:12:09;6.87;;;5.37;;
20988;SDS011;10653;47.052;15.410;2023-07-08T08:14:36;6.40;;;5.50;;
20988;SDS011;10653;47.052;15.410;2023-07-08T08:17:02;7.83;;;6.43;;
20988;SDS011;10653;47.052;15.410;2023-07-08T08:19:29;11.47;;;8.67;;
20988;SDS011;10653;47.052;15.410;2023-07-08T08:21:56;7.40;;;5.73;;
20988;SDS011;10653;47.052;15.410;2023-07-08T08:24:22;6.20;;;5.30;;
20988;SDS011;10653;47.052;15.410;2023-07-08T08:26:48;7.43;;;5.23;;
20988;SDS011;10653;47.052;15.410;2023-07-08T08:29:14;5.70;;;5.20;;
20988;SDS011;10653;47.052;15.410;2023-07-08T08:31:40;6.00;;;5.03;;
20988;SDS011;10653;47.052;15.410;2023-07-08T08:34:06;6.10;;;5.20;;
20988;SDS011;10653;47.052;15.410;2023-07-08T08:36:32;6.27;;;4.70;;
20988;SDS011;10653;47.052;15.410;2023-07-08T08:38:58;6.27;;;5.30;;
20988;SDS011;10653;47.052;15.410;2023-07-08T08:41:29;5.70;;;4.50;;
20988;SDS011;10653;47.052;15.410;2023-07-08T08:43:56;7.67;;;4.90;;
20988;SDS011;10653;47.052;15.410;2023-07-08T08:46:36;5.80;;;5.17;;
20988;SDS011;10653;47.052;15.410;2023-07-08T08:51:31;5.70;;;4.27;;
20988;SDS011;10653;47.052;15.410;2023-07-08T08:53:58;6.50;;;4.70;;
20988;SDS011;10653;47.052;15.410;2023-07-08T08:56:28;5.83;;;4.93;;
20988;SDS011;10653;47.052;15.410;2023-07-08T08:59:02;6.33;;;5.50;;
20988;SDS011;10653;47.052;15.410;2023-07-08T09:01:30;5.43;;;4.80;;
20988;SDS011;10653;47.052;15.410;2023-07-08T09:06:26;5.17;;;4.50;;
20988;SDS011;10653;47.052;15.410;2023-07-08T09:08:52;6.00;;;5.10;;
20988;SDS011;10653;47.052;15.410;2023-07-08T09:13:45;5.40;;;5.00;;
20988;SDS011;10653;47.052;15.410;2023-07-08T09:16:33;5.20;;;4.63;;
20988;SDS011;10653;47.052;15.410;2023-07-08T09:19:12;5.90;;;4.90;;
20988;SDS011;10653;47.052;15.410;2023-07-08T09:24:10;7.70;;;5.77;;
20988;SDS011;10653;47.052;15.410;2023-07-08T09:26:38;7.10;;;5.97;;
20988;SDS011;10653;47.052;15.410;2023-07-08T09:29:07;6.97;;;5.70;;
20988;SDS011;10653;47.052;15.410;2023-07-08T09:31:36;6.27;;;5.67;;
20988;SDS011;10653;47.052;15.410;2023-07-08T09:34:05;6.17;;;4.70;;
20988;SDS011;10653;47.052;15.410;2023-07-08T09:36:31;6.23;;;5.33;;
20988;SDS011;10653;47.052;15.410;2023-07-08T09:38:57;8.47;;;5.90;;
20988;SDS011;10653;47.052;15.410;2023-07-08T09:41:28;6.90;;;5.33;;
20988;SDS011;10653;47.052;15.410;2023-07-08T09:44:02;6.90;;;5.30;;
20988;SDS011;10653;47.052;15.410;2023-07-08T09:46:29;9.13;;;5.90;;
20988;SDS011;10653;47.052;15.410;2023-07-08T09:48:55;6.00;;;5.40;;
20988;SDS011;10653;47.052;15.410;2023-07-08T09:51:22;6.00;;;5.40;;
20988;SDS011;10653;47.052;15.410;2023-07-08T09:53:48;6.20;;;5.60;;
20988;SDS011;10653;47.052;15.410;2023-07-08T09:56:14;5.00;;;4.50;;
20988;SDS011;10653;47.052;15.410;2023-07-08T09:58:41;5.10;;;4.60;;
20988;SDS011;10653;47.052;15.410;2023-07-08T10:01:12;5.23;;;4.73;;
20988;SDS011;10653;47.052;15.410;2023-07-08T10:03:39;6.70;;;5.60;;
20988;SDS011;10653;47.052;15.410;2023-07-08T10:06:10;6.17;;;5.57;;
20988;SDS011;10653;47.052;15.410;2023-07-08T10:08:40;6.20;;;5.60;;
20988;SDS011;10653;47.052;15.410;2023-07-08T10:16:13;8.73;;;5.37;;
20988;SDS011;10653;47.052;15.410;2023-07-08T10:18:40;6.83;;;5.40;;
20988;SDS011;10653;47.052;15.410;2023-07-08T10:21:15;8.80;;;5.97;;
20988;SDS011;10653;47.052;15.410;2023-07-08T10:26:19;5.83;;;5.23;;
20988;SDS011;10653;47.052;15.410;2023-07-08T10:31:40;7.13;;;5.43;;
20988;SDS011;10653;47.052;15.410;2023-07-08T10:34:12;6.40;;;5.20;;
20988;SDS011;10653;47.052;15.410;2023-07-08T10:42:05;6.20;;;5.43;;
20988;SDS011;10653;47.052;15.410;2023-07-08T10:47:15;5.70;;;4.97;;
20988;SDS011;10653;47.052;15.410;2023-07-08T10:57:37;6.87;;;5.97;;
20988;SDS011;10653;47.052;15.410;2023-07-08T11:10:56;6.20;;;5.60;;
20988;SDS011;10653;47.052;15.410;2023-07-08T11:13:23;6.53;;;5.90;;
20988;SDS011;10653;47.052;15.410;2023-07-08T11:25:49;7.30;;;5.20;;
20988;SDS011;10653;47.052;15.410;2023-07-08T11:28:17;6.10;;;5.50;;
20988;SDS011;10653;47.052;15.410;2023-07-08T11:30:44;6.40;;;5.23;;
20988;SDS011;10653;47.052;15.410;2023-07-08T11:33:12;5.97;;;5.37;;
20988;SDS011;10653;47.052;15.410;2023-07-08T11:38:05;6.50;;;5.50;;
20988;SDS011;10653;47.052;15.410;2023-07-08T11:40:31;5.50;;;5.00;;
20988;SDS011;10653;47.052;15.410;2023-07-08T11:43:04;6.33;;;5.33;;
20988;SDS011;10653;47.052;15.410;2023-07-08T11:45:32;7.63;;;4.90;;
20988;SDS011;10653;47.052;15.410;2023-07-08T11:50:32;5.63;;;5.13;;
20988;SDS011;10653;47.052;15.410;2023-07-08T11:53:03;7.13;;;5.80;;
20988;SDS011;10653;47.052;15.410;2023-07-08T11:55:42;5.87;;;5.20;;
20988;SDS011;10653;47.052;15.410;2023-07-08T11:58:22;6.83;;;6.10;;
20988;SDS011;10653;47.052;15.410;2023-07-08T12:01:32;6.50;;;5.80;;
20988;SDS011;10653;47.052;15.410;2023-07-08T12:03:38;5.57;;;5.00;;
20988;SDS011;10653;47.052;15.410;2023-07-08T12:09:21;5.83;;;5.33;;
20988;SDS011;10653;47.052;15.410;2023-07-08T12:11:50;7.13;;;6.00;;
20988;SDS011;10653;47.052;15.410;2023-07-08T12:14:18;6.70;;;6.10;;
20988;SDS011;10653;47.052;15.410;2023-07-08T12:16:44;6.13;;;5.53;;
20988;SDS011;10653;47.052;15.410;2023-07-08T12:19:11;5.87;;;5.37;;
20988;SDS011;10653;47.052;15.410;2023-07-08T12:21:39;6.00;;;5.40;;
20988;SDS011;10653;47.052;15.410;2023-07-08T12:24:07;7.10;;;6.00;;
20988;SDS011;10653;47.052;15.410;2023-07-08T12:26:35;5.60;;;5.00;;
20988;SDS011;10653;47.052;15.410;2023-07-08T12:29:02;6.43;;;5.83;;
20988;SDS011;10653;47.052;15.410;2023-07-08T12:31:28;6.10;;;5.50;;
20988;SDS011;10653;47.052;15.410;2023-07-08T12:33:56;6.90;;;6.20;;
20988;SDS011;10653;47.052;15.410;2023-07-08T12:36:24;5.90;;;5.30;;
20988;SDS011;10653;47.052;15.410;2023-07-08T12:38:51;6.50;;;5.20;;
20988;SDS011;10653;47.052;15.410;2023-07-08T12:41:19;6.97;;;5.50;;
20988;SDS011;10653;47.052;15.410;2023-07-08T12:43:46;6.20;;;5.10;;
20988;SDS011;10653;47.052;15.410;2023-07-08T12:46:13;5.57;;;4.97;;
20988;SDS011;10653;47.052;15.410;2023-07-08T12:48:40;5.80;;;5.17;;
20988;SDS011;10653;47.052;15.410;2023-07-08T12:51:10;5.57;;;4.97;;
20988;SDS011;10653;47.052;15.410;2023-07-08T12:53:36;7.67;;;5.20;;
20988;SDS011;10653;47.052;15.410;2023-07-08T12:56:02;5.60;;;5.00;;
20988;SDS011;10653;47.052;15.410;2023-07-08T12:58:29;5.60;;;4.80;;
20988;SDS011;10653;47.052;15.410;2023-07-08T13:00:56;4.93;;;4.40;;
20988;SDS011;10653;47.052;15.410;2023-07-08T13:03:24;5.67;;;5.17;;
20988;SDS011;10653;47.052;15.410;2023-07-08T13:05:50;5.10;;;4.60;;
20988;SDS011;10653;47.052;15.410;2023-07-08T13:08:18;4.83;;;4.43;;
20988;SDS011;10653;47.052;15.410;2023-07-08T13:10:46;5.70;;;5.07;;
20988;SDS011;10653;47.052;15.410;2023-07-08T13:13:16;4.97;;;4.57;;
20988;SDS011;10653;47.052;15.410;2023-07-08T13:15:43;7.70;;;6.90;;
20988;SDS011;10653;47.052;15.410;2023-07-08T13:18:13;5.67;;;5.00;;
20988;SDS011;10653;47.052;15.410;2023-07-08T13:20:40;4.60;;;4.20;;
20988;SDS011;10653;47.052;15.410;2023-07-08T13:23:07;5.27;;;4.77;;
20988;SDS011;10653;47.052;15.410;2023-07-08T13:25:36;6.17;;;4.30;;
20988;SDS011;10653;47.052;15.410;2023-07-08T13:28:14;5.20;;;4.80;;
20988;SDS011;10653;47.052;15.410;2023-07-08T13:30:48;5.80;;;5.20;;
20988;SDS011;10653;47.052;15.410;2023-07-08T13:33:16;5.10;;;4.60;;
20988;SDS011;10653;47.052;15.410;2023-07-08T13:35:42;5.37;;;4.90;;
20988;SDS011;10653;47.052;15.410;2023-07-08T13:38:12;4.67;;;4.27;;
20988;SDS011;10653;47.052;15.410;2023-07-08T13:40:42;5.40;;;5.00;;
20988;SDS011;10653;47.052;15.410;2023-07-08T13:43:10;6.53;;;5.10;;
20988;SDS011;10653;47.052;15.410;2023-07-08T13:45:36;5.43;;;4.47;;
20988;SDS011;10653;47.052;15.410;2023-07-08T13:48:08;5.60;;;5.20;;
20988;SDS011;10653;47.052;15.410;2023-07-08T13:50:44;5.93;;;4.63;;
20988;SDS011;10653;47.052;15.410;2023-07-08T13:53:17;5.57;;;4.93;;
20988;SDS011;10653;47.052;15.410;2023-07-08T13:55:44;5.10;;;4.70;;
20988;SDS011;10653;47.052;15.410;2023-07-08T13:58:14;5.53;;;4.97;;
20988;SDS011;10653;47.052;15.410;2023-07-08T14:00:40;6.83;;;4.43;;
20988;SDS011;10653;47.052;15.410;2023-07-08T14:03:12;5.43;;;4.80;;
20988;SDS011;10653;47.052;15.410;2023-07-08T14:05:40;5.40;;;4.90;;
20988;SDS011;10653;47.052;15.410;2023-07-08T14:08:13;5.60;;;5.10;;
20988;SDS011;10653;47.052;15.410;2023-07-08T14:10:40;5.10;;;4.70;;
20988;SDS011;10653;47.052;15.410;2023-07-08T14:13:06;5.30;;;4.80;;
20988;SDS011;10653;47.052;15.410;2023-07-08T14:15:32;4.30;;;4.00;;
20988;SDS011;10653;47.052;15.410;2023-07-08T14:17:59;5.13;;;4.73;;
20988;SDS011;10653;47.052;15.410;2023-07-08T14:20:26;6.30;;;5.33;;
20988;SDS011;10653;47.052;15.410;2023-07-08T14:22:56;8.70;;;5.20;;
20988;SDS011;10653;47.052;15.410;2023-07-08T14:25:22;5.73;;;5.23;;
20988;SDS011;10653;47.052;15.410;2023-07-08T14:27:51;5.57;;;4.77;;
20988;SDS011;10653;47.052;15.410;2023-07-08T14:30:17;6.43;;;5.60;;
20988;SDS011;10653;47.052;15.410;2023-07-08T14:32:43;5.53;;;5.07;;
20988;SDS011;10653;47.052;15.410;2023-07-08T14:37:39;5.80;;;5.30;;
20988;SDS011;10653;47.052;15.410;2023-07-08T14:40:24;5.33;;;4.80;;
20988;SDS011;10653;47.052;15.410;2023-07-08T14:42:54;5.30;;;4.90;;
20988;SDS011;10653;47.052;15.410;2023-07-08T14:45:22;5.50;;;5.00;;
20988;SDS011;10653;47.052;15.410;2023-07-08T14:47:48;4.67;;;4.23;;
20988;SDS011;10653;47.052;15.410;2023-07-08T14:50:14;5.20;;;4.80;;
20988;SDS011;10653;47.052;15.410;2023-07-08T14:52:40;4.50;;;4.10;;
20988;SDS011;10653;47.052;15.410;2023-07-08T14:55:07;5.27;;;4.87;;
20988;SDS011;10653;47.052;15.410;2023-07-08T14:57:38;5.17;;;4.77;;
20988;SDS011;10653;47.052;15.410;2023-07-08T15:00:05;5.80;;;5.20;;
20988;SDS011;10653;47.052;15.410;2023-07-08T15:02:32;6.00;;;5.50;;
20988;SDS011;10653;47.052;15.410;2023-07-08T15:05:01;5.33;;;4.70;;
20988;SDS011;10653;47.052;15.410;2023-07-08T15:07:27;5.30;;;4.90;;
20988;SDS011;10653;47.052;15.410;2023-07-08T15:09:53;5.63;;;5.07;;
20988;SDS011;10653;47.052;15.410;2023-07-08T15:12:19;5.80;;;5.13;;
20988;SDS011;10653;47.052;15.410;2023-07-08T15:14:45;5.47;;;4.97;;
20988;SDS011;10653;47.052;15.410;2023-07-08T15:17:14;5.63;;;5.20;;
20988;SDS011;10653;47.052;15.410;2023-07-08T15:19:42;5.33;;;4.83;;
20988;SDS011;10653;47.052;15.410;2023-07-08T15:22:08;5.40;;;4.90;;
20988;SDS011;10653;47.052;15.410;2023-07-08T15:24:34;5.10;;;4.60;;
20988;SDS011;10653;47.052;15.410;2023-07-08T15:27:00;5.47;;;4.97;;
20988;SDS011;10653;47.052;15.410;2023-07-08T15:29:26;4.83;;;4.43;;
20988;SDS011;10653;47.052;15.410;2023-07-08T15:31:52;5.07;;;4.67;;
20988;SDS011;10653;47.052;15.410;2023-07-08T15:34:19;5.30;;;4.90;;
20988;SDS011;10653;47.052;15.410;2023-07-08T15:36:46;5.70;;;5.23;;
20988;SDS011;10653;47.052;15.410;2023-07-08T15:39:12;4.67;;;4.37;;
20988;SDS011;10653;47.052;15.410;2023-07-08T15:41:38;6.10;;;5.60;;
20988;SDS011;10653;47.052;15.410;2023-07-08T15:44:06;5.63;;;4.57;;
20988;SDS011;10653;47.052;15.410;2023-07-08T15:46:34;5.67;;;5.17;;
20988;SDS011;10653;47.052;15.410;2023-07-08T15:49:01;6.07;;;5.27;;